• pl
  • eng

Awiacja
WIADOMOŚCI
ostatnia aktualizacja: 11.01.2019 18:40
Szanowni Państwo,

uprzejmie informujemy, że z dniem 01.01.2019 roku z obszaru MOLC zostanie wyłączone BPM we Wrocławiu. Jego zadania zostaną przejęte przez BPM w Krakowie.

Komunikaty METAR z lotnisk wojskowych. 09:01 23.01.2019

METAR EPCE 230800Z 11003KT 5000 BR NSC M07/M09
Q1009 RMK M070 086 0/0=

METAR EPDA 230800Z 05006KT 4000 BR NSC M09/M10
Q1009 RMK M087 091 0/0=

METAR EPDE 230800Z 09012KT 9999 BKN013 OVC015 M05/M08 Q1009 RMK M050
082 8/5=

METAR EPIR 230800Z 07008KT 3500 BR BKN021 M06/M08 Q1009 RMK M066 091
7/7=

METAR EPKS 230800Z 11013KT 7000 OVC014 M05/M08 Q1007 RMK M055 082
8/8=

METAR EPLK 230800Z 12008KT 050V150 9999 OVC014 M04/M08 Q1006 RMK
M043 078 8/8=

METAR EPLY 230800Z 12012KT 8000 OVC018 M04/M07 Q1008 RMK M037 079
8/8=

METAR EPMB 230800Z 11006KT 3000 BR NSC M08/M09 Q1011 RMK M079 090
0/0=

METAR EPMI 230800Z 10010KT 4500 BR BKN010 M08/M10 Q1007 RMK M076 085
7/7=

METAR EPMM 230800Z 09010KT 8000 BKN025 M05/M07 Q1009 RMK M055 089
7/7=

METAR EPNA 230800Z 08004KT 3000 BR SCT017 M09/M10 Q1008 RMK M090 093
4/4=

METAR EPOK 230800Z 15008KT 4000 BR NSC M06/M07
Q1011 RMK M058 089 0/0=

METAR EPPR 230800Z 00000KT 3000 BR NSC M10/M12 Q1012 RMK M104 090
0/0=

METAR EPPW 230800Z 10010KT 9999 OVC016 M05/M08 Q1008 RMK M052 078
8/8=

METAR EPRA 230800Z NIL=

METAR EPSN 230800Z 12010KT 7000 NSC M06/M09 Q1007 RMK M063 081 0/0=

METAR EPTM 230800Z 09012KT 9999 OVC016 M04/M08 Q1007 RMK M043 077
8/8=
 METAR EPCE
Lokalizacja:EPCE Cewice
Czas:08:00 UTC
Średni kierunek wiatru:110 °
Średnia prędkość wiatru:3 węzłów
Widzialność:5000 metrów
Zjawisko:zamglenie
Zachmurzenie :brak chmur istotnych operacyjnie
Temperatura powietrza:-7 °C
Temperatura punktu rosy:-9 °C
Ciśnienie QNH:1009 hPa
Dokładna temperatura powietrza:-7,0 °C
Dokładna wilgotność względna:86 %
Zachmurzenie przez wszystkie piętra chmur:0/8
Zachmurzenie przez chmury niskie:0/8
Awiacja.imgw.pl jest pogodowym serwisem informacyjnym
Instytutu Meteorologii i Gospodarki Wodnej Państwowego Instytutu Badawczego.
Copyright IMGW PIB 2009-2011© Wszelkie prawa zastrzeżone.